METAR Data
IDs: Format: Raw Decoded Include TAF

Data at: 1747 UTC 16 Oct 2021

KCVB 161734Z AUTO 03009KT CLR 22/03 A3039 RMK AO2 PWINO
KCVB 161714Z AUTO 02008KT CLR 22/04 A3040 RMK AO2 PWINO
KCVB 161655Z AUTO 04010KT CLR 22/04 A3040 RMK AO2 PWINO
KCVB 161634Z AUTO 05011KT CLR 22/04 A3040 RMK AO2 PWINO
KCVB 161614Z AUTO 05013KT CLR 21/03 A3041 RMK AO2 PWINO
KCVB 161554Z AUTO 05015G20KT CLR 21/03 A3041 RMK AO2 PWINO
KCVB 161534Z AUTO 05015KT CLR 21/03 A3041 RMK AO2 PWINO
KCVB 161514Z AUTO 05012G18KT CLR 20/04 A3041 RMK AO2 PWINO
KCVB 161454Z AUTO 03010G20KT CLR 19/04 A3040 RMK AO2 PWINO
KCVB 161434Z AUTO 03007KT CLR 19/04 A3039 RMK AO2 PWINO
KCVB 161414Z AUTO 03008G14KT CLR 18/04 A3038 RMK AO2 PWINO
KCVB 161354Z AUTO 02008G14KT CLR 17/06 A3037 RMK AO2 PWINO
KCVB 161334Z AUTO 02007KT CLR 16/06 A3036 RMK AO2 PWINO
KCVB 161316Z AUTO 36005KT CLR 15/07 A3035 RMK AO2 PWINO
KCVB 161254Z AUTO 36005KT CLR 14/06 A3035 RMK AO2 PWINO
KCVB 161234Z AUTO 36003KT CLR 14/06 A3035 RMK AO2 PWINO
KCVB 161214Z AUTO 01003KT CLR 14/06 A3034 RMK AO2 PWINO
KCVB 161154Z AUTO 36005KT CLR 15/06 A3034 RMK AO2 PWINO
KCVB 161134Z AUTO 35004KT CLR 14/06 A3032 RMK AO2 PWINO
KCVB 161114Z AUTO 35006KT CLR 15/06 A3031 RMK AO2 PWINO
KCVB 161055Z AUTO 36004KT CLR 16/05 A3031 RMK AO2 PWINO
KCVB 161034Z AUTO 36004KT CLR 16/06 A3030 RMK AO2 PWINO
KCVB 161014Z AUTO 02004KT CLR 17/05 A3028 RMK AO2 PWINO
KCVB 160954Z AUTO 36006KT CLR 17/05 A3027 RMK AO2 PWINO
KCVB 160935Z AUTO 36007KT CLR 17/05 A3027 RMK AO2 PWINO
KCVB 160914Z AUTO 01005KT CLR 18/05 A3027 RMK AO2 PWINO
KCVB 160854Z AUTO 02009G14KT CLR 18/05 A3027 RMK AO2 PWINO
KCVB 160834Z AUTO 01009G15KT CLR 18/05 A3026 RMK AO2 PWINO
KCVB 160814Z AUTO 01009G15KT CLR 18/05 A3026 RMK AO2 PWINO
KCVB 160754Z AUTO 02008G14KT CLR 19/06 A3026 RMK AO2 PWINO
KCVB 160734Z AUTO 01008KT SCT085 19/07 A3026 RMK AO2 PWINO
KCVB 160714Z AUTO 01009G16KT BKN075 19/07 A3026 RMK AO2 PWINO
KCVB 160654Z AUTO 01012G15KT BKN075 20/07 A3025 RMK AO2 PWINO
KCVB 160634Z AUTO 01012G17KT SCT075 20/07 A3025 RMK AO2 PWINO
KCVB 160614Z AUTO 01010G17KT BKN075 20/08 A3024 RMK AO2 PWINO
KCVB 160554Z AUTO 02009G15KT OVC075 21/08 A3024 RMK AO2 PWINO
KCVB 160534Z AUTO 01012G18KT BKN075 21/09 A3022 RMK AO2 PWINO
KCVB 160514Z AUTO 01010G19KT CLR 21/09 A3022 RMK AO2 PWINO
KCVB 160454Z AUTO 01008KT CLR 21/10 A3022 RMK AO2 PWINO
KCVB 160434Z AUTO 01009G14KT CLR 22/10 A3022 RMK AO2 PWINO
KCVB 160414Z AUTO 01009G14KT CLR 22/10 A3021 RMK AO2 PWINO
KCVB 160354Z AUTO 01008G16KT CLR 22/10 A3020 RMK AO2 PWINO
KCVB 160334Z AUTO 02009G16KT CLR 22/11 A3018 RMK AO2 PWINO
KCVB 160314Z AUTO 02007KT CLR 23/11 A3017 RMK AO2 PWINO
KCVB 160254Z AUTO 04006KT CLR 23/12 A3016 RMK AO2 PWINO
KCVB 160234Z AUTO 01006KT CLR 22/12 A3014 RMK AO2 PWINO
KCVB 160214Z AUTO 00000KT CLR 23/12 A3013 RMK AO2 PWINO
KCVB 160154Z AUTO 02004KT CLR 23/12 A3010 RMK AO2 PWINO
KCVB 160134Z AUTO 36004KT CLR 23/13 A3009 RMK AO2 PWINO
KCVB 160114Z AUTO 36004KT CLR 23/13 A3008 RMK AO2 PWINO
KCVB 160054Z AUTO 36006KT CLR 24/14 A3007 RMK AO2 PWINO
KCVB 160034Z AUTO 01006KT CLR 24/13 A3007 RMK AO2 PWINO
KCVB 160014Z AUTO 01010G14KT CLR 25/13 A3006 RMK AO2 PWINO
KCVB 152355Z AUTO 01009KT SCT120 26/14 A3005 RMK AO2 PWINO
KCVB 152334Z AUTO 01006KT SCT120 27/16 A3004 RMK AO2 PWINO
KCVB 152314Z AUTO 36007KT SCT110 27/16 A3003 RMK AO2 PWINO
KCVB 152254Z AUTO 01008KT BKN110 27/15 A3002 RMK AO2 PWINO
KCVB 152235Z AUTO 01009KT BKN110 27/15 A3002 RMK AO2 PWINO
KCVB 152214Z AUTO 03008KT SCT080 OVC100 27/17 A3002 RMK AO2 PWINO
KCVB 152156Z AUTO 36009KT BKN080 OVC110 27/16 A3002 RMK AO2 PWINO
KCVB 152134Z AUTO 04010G15KT SCT080 BKN090 27/21 A3000 RMK AO2 LTG DSNT E AND SW PWINO
KCVB 152114Z AUTO 01010G14KT SCT080 SCT100 27/20 A2998 RMK AO2 LTG DSNT E AND SW PWINO
KCVB 152055Z AUTO 36010KT VCTSMM SCT038 SCT050 SCT070 26/21 A2998 RMK AO2 LTG DSNT NE AND E
KCVB 152036Z AUTO 34014G28KT VCTSMM SCT038 SCT050 BKN070 26/21 A2998 RMK AO2 LTG DSNT NE E AND W
KCVB 152014Z AUTO 31018G21KT SCT041 32/21 A2997 RMK AO2 LTG DSNT N AND NE PWINO
KCVB 151954Z AUTO 00000KT CLR 32/20 A2997 RMK AO2 PWINO
KCVB 151934Z AUTO 00000KT CLR 32/21 A2997 RMK AO2 PWINO
KCVB 151914Z AUTO 00000KT SCT032 32/22 A2997 RMK AO2 LTG DSNT N PWINO
KCVB 151855Z AUTO 00000KT SCT030 SCT035 SCT046 31/22 A2998 RMK AO2 PWINO
KCVB 151834Z AUTO 21004KT SCT048 SCT055 31/22 A2999 RMK AO2 PWINO
KCVB 151814Z AUTO 00000KT SCT026 SCT031 BKN046 31/23 A3001 RMK AO2 PWINO
KCVB 151754Z AUTO 33005KT BKN028 BKN041 BKN048 31/23 A3001 RMK AO2 PWINO
KCVB 151734Z AUTO 05003KT SCT048 31/23 A3001 RMK AO2 PWINO
KCVB 151714Z AUTO 00000KT BKN046 30/23 A3002 RMK AO2 PWINO
KCVB 151654Z AUTO 00000KT SCT024 SCT032 OVC044 29/23 A3002 RMK AO2 PWINO
KCVB 151634Z AUTO 00000KT SCT011 OVC028 28/23 A3002 RMK AO2 PWINO
KCVB 151614Z AUTO 00000KT SCT011 BKN028 28/25 A3002 RMK AO2 PWINO
KCVB 151555Z AUTO 00000KT SCT011 28/25 A3001 RMK AO2 PWINO
KCVB 151534Z AUTO 00000KT SCT007 SCT028 28/25 A3001 RMK AO2 PWINO
KCVB 151516Z AUTO 00000KT 27/26 A3000 RMK AO2 PWINO
KCVB 151454Z AUTO 12003KT 27/26 A2999 RMK AO2 PWINO
KCVB 151434Z AUTO 00000KT OVC007 26/26 A2999 RMK AO2 PWINO
KCVB 151415Z AUTO 00000KT OVC007 26/26 A2998 RMK AO2 PWINO
KCVB 151355Z AUTO 00000KT OVC005 25/25 A2997 RMK AO2 PWINO
KCVB 151334Z AUTO 00000KT BKN005 BKN010 OVC021 25/25 A2997 RMK AO2 PWINO
KCVB 151315Z AUTO 00000KT 25/25 A2996 RMK AO2 PWINO
KCVB 151254Z AUTO 00000KT 25/25 A2995 RMK AO2 PWINO
KCVB 151234Z AUTO 00000KT BKN002 OVC008 25/25 A2994 RMK AO2 PWINO
KCVB 151214Z AUTO 00000KT OVC002 25/25 A2994 RMK AO2 PWINO
KCVB 151154Z AUTO 00000KT OVC002 25/25 A2992 RMK AO2 PWINO
KCVB 151135Z AUTO 09003KT OVC002 25/25 A2992 RMK AO2 PWINO
KCVB 151114Z AUTO 00000KT OVC002 25/25 A2992 RMK AO2 PWINO
KCVB 151054Z AUTO 00000KT OVC002 24/24 A2991 RMK AO2 PWINO
KCVB 151034Z AUTO 00000KT OVC002 24/24 A2991 RMK AO2 PWINO
KCVB 151014Z AUTO 00000KT OVC002 24/24 A2990 RMK AO2 PWINO
KCVB 150954Z AUTO 00000KT OVC002 24/24 A2990 RMK AO2 PWINO
KCVB 150935Z AUTO 00000KT OVC002 24/24 A2990 RMK AO2 PWINO
KCVB 150914Z AUTO 00000KT OVC002 24/24 A2990 RMK AO2 PWINO
KCVB 150854Z AUTO 08003KT OVC002 24/24 A2990 RMK AO2 PWINO
KCVB 150834Z AUTO 08003KT OVC002 24/24 A2990 RMK AO2 PWINO
KCVB 150815Z AUTO 12003KT OVC004 24/24 A2990 RMK AO2 PWINO
KCVB 150754Z AUTO 00000KT OVC004 24/24 A2990 RMK AO2 PWINO
KCVB 150734Z AUTO 09003KT OVC006 24/24 A2990 RMK AO2 PWINO
KCVB 150714Z AUTO 07003KT OVC006 24/24 A2990 RMK AO2 PWINO
KCVB 150654Z AUTO 06003KT OVC006 24/24 A2990 RMK AO2 PWINO
KCVB 150634Z AUTO 06003KT BKN008 24/24 A2990 RMK AO2 PWINO
KCVB 150614Z AUTO 07003KT 24/24 A2990 RMK AO2 PWINO
KCVB 150555Z AUTO 07003KT OVC008 24/24 A2990 RMK AO2 PWINO